Share

Alamo, GA

8:24 PM EDT on April 23, 2014 (GMT -0400)
RAWS MCRAE GA US (MMRAG1) Elev 201 ft | 32.09 °N, 82.88 °W | Change Station

Current weather conditions updated 21 minutes ago

Clear
Clear
74 °F
Feels Like 77 °F
N
1
Wind Variable Wind from WNW
Gusts 6.0 mph
Sunrise 6:53 AM
Sunset 8:06 PM
Moon Waning Crescent

Tomorrow is forecast to be nearly the same temperature as today.

Pressure 29.87 in
Visibility 10.0 miles
Clouds Clear
Heat Index 77 °F
Dew Point 53 °F
Humidity 48%
Rainfall 0.03 in
Snow Depth Not available.
UV 0 out of 16
Pollen 8.30 out of 12
Air Quality Not available.
Flu Activity Sporadic
METAR KVDI 240015Z AUTO 00000KT 10SM CLR 22/13 A2987 RMK AO2

More Conditions Fewer Conditions

Pressure 29.87 in
Visibility 10.0 miles
Clouds Clear
Heat Index 77 °F
Dew Point 53 °F
Humidity 48%
Rainfall 0.03 in
Snow Depth Not available.
UV 0 out of 16
Pollen 8.30 out of 12
Air Quality Not available.
Flu Activity Sporadic
METAR KVDI 240015Z AUTO 00000KT 10SM CLR 22/13 A2987 RMK AO2

More Conditions Fewer Conditions

10-Day Weather Forecast

Almanac

Astronomy

Apr. 23, 2014 Rise Set
Actual Time 6:53 AM EDT 8:06 PM EDT
Civil Twilight 6:27 AM EDT 8:31 PM EDT
Nautical Twilight 5:57 AM EDT 9:02 PM EDT
Astronomical Twilight 5:25 AM EDT 9:33 PM EDT
Moon 3:02 AM EDT (4/23) 2:33 PM EDT (4/23)
Length of Visible Light 14h 04m
Length of Day
13h 13m
Tomorrow will be 1m 46s longer.
Waning Crescent, 31% of the Moon is Illuminated
Today
Waning Crescent
Apr 29
New
May 6
First Quarter
May 14
Full
May 21
Last Quarter

Today's Extremes

State Highs State Lows

Community

  • Nestled In
    Nestled In
  • Stunning Sunrise
    Stunning Sunrise
  • spring flowers
    spring flowers
  • Earth Day Spectrum Ove' Blue
    Earth Day Spectrum Ove' Blue
  • BARN B&W
    BARN B&W

WunderPhotos

Upload Photos

1,704,467 photos uploaded!

Nearby

Snow Depth

Station Depth Elevation
No new snow has been reported.

Coastal Water Temperatures

Place Temperature
No Stations Reporting

Earthquake Activity

City Distance Mag. Time & Date
No recent earthquake activity has been reported nearby.
Minimum magnitude displayed is 2.5.

Nearby Weather Stations

Station Location Temp. Heat Index Dew Point Humidity Wind Precip. Elev Updated Type
RAWS MCRAE GA, McRae, GA 74 °F 77 °F 53 °F 48% WNW  at  1 mph 0.00 in / hr 201 ft 8:03 PM EDT MADIS
South Treutlen Co., Soperton, GA 67.0 °F - 60 °F 79% North  at  0.0 mph 0.00 in / hr 236 ft 8:24 PM EDT Rapid Fire
Pineline Ave, Hazlehurst, GA 70.5 °F - 69 °F 95% ESE  at  0.0 mph - / hr 276 ft 8:21 PM EDT Normal
Jacksonville, GA 71.1 °F 72 °F 64 °F 77% West  at  0.0 mph 0.00 in / hr 171 ft 8:12 PM EDT Normal
Eastman, Eastman, GA 70.2 °F 76 °F 57 °F 62% West  at  0.0 mph - / hr 381 ft 8:12 PM EDT Normal

Show More Stations Show Fewer Stations

What do you think?

We're not finished. Please let us know what you like, what you don't like, and what you are still missing.